createdAt,value
2019-05-29T00:00:16.204Z,81.46
2019-05-29T00:02:49.122Z,81.34
2019-05-29T00:05:22.007Z,81.06
2019-05-29T00:07:54.843Z,81.15
2019-05-29T00:10:27.804Z,81.73
2019-05-29T00:13:00.737Z,81.52
2019-05-29T00:15:33.672Z,81.16
2019-05-29T00:18:06.835Z,81.43
2019-05-29T00:20:39.746Z,81.84
2019-05-29T00:23:13.176Z,81.86
2019-05-29T00:25:46.053Z,81.46
2019-05-29T00:28:18.916Z,78.73
2019-05-29T00:30:51.774Z,76.76
2019-05-29T00:33:24.609Z,76.25
2019-05-29T00:35:57.526Z,77.37
2019-05-29T00:38:30.395Z,75.79
2019-05-29T00:41:03.272Z,75.74
2019-05-29T00:43:36.145Z,75.97
2019-05-29T00:46:09.319Z,74.75
2019-05-29T00:48:42.197Z,75.01
2019-05-29T00:51:15.158Z,74.16
2019-05-29T00:53:47.971Z,74.55
2019-05-29T00:56:20.789Z,74.71
2019-05-29T00:58:53.600Z,74.10
2019-05-29T01:01:26.421Z,74.28
2019-05-29T01:03:59.394Z,74.53
2019-05-29T01:06:32.140Z,74.30
2019-05-29T01:09:06.189Z,74.74
2019-05-29T01:11:39.006Z,74.71
2019-05-29T01:14:13.007Z,74.23
2019-05-29T01:16:46.024Z,73.98
2019-05-29T01:19:25.436Z,74.08
2019-05-29T01:21:58.744Z,74.71
2019-05-29T01:24:31.533Z,74.60
2019-05-29T01:27:04.509Z,74.51
2019-05-29T01:29:37.294Z,74.96
2019-05-29T01:32:10.164Z,74.57
2019-05-29T01:34:43.011Z,75.17
2019-05-29T01:37:16.130Z,74.79
2019-05-29T01:39:50.094Z,74.93
2019-05-29T01:42:24.350Z,74.78
2019-05-29T01:45:07.122Z,74.82
2019-05-29T01:47:31.688Z,74.62
2019-05-29T01:50:04.479Z,75.04
2019-05-29T01:52:37.376Z,75.21
2019-05-29T01:55:10.635Z,75.28
2019-05-29T01:57:43.490Z,75.13
2019-05-29T02:00:17.789Z,75.76
2019-05-29T02:02:51.375Z,74.87
2019-05-29T02:05:24.237Z,75.08
2019-05-29T02:07:57.123Z,75.15
2019-05-29T02:10:29.979Z,74.35
2019-05-29T02:13:02.780Z,74.33
2019-05-29T02:15:35.761Z,74.41
2019-05-29T02:18:08.631Z,74.48
2019-05-29T02:20:44.551Z,74.58
2019-05-29T02:23:17.783Z,74.99
2019-05-29T02:25:50.540Z,75.12
2019-05-29T02:28:24.580Z,75.07
2019-05-29T02:30:57.474Z,75.11
2019-05-29T02:33:30.220Z,74.70
2019-05-29T02:36:03.077Z,74.86
2019-05-29T02:38:35.850Z,74.75
2019-05-29T02:41:08.733Z,75.06
2019-05-29T02:43:41.519Z,75.10
2019-05-29T02:46:14.281Z,75.17
2019-05-29T02:48:47.127Z,74.82
2019-05-29T02:51:19.895Z,75.25
2019-05-29T02:53:52.708Z,75.08
2019-05-29T02:56:26.906Z,75.22
2019-05-29T02:58:59.974Z,75.57
2019-05-29T03:01:32.948Z,75.55
2019-05-29T03:04:05.745Z,75.59
2019-05-29T03:06:38.935Z,75.34
2019-05-29T03:09:11.690Z,75.54
2019-05-29T03:11:44.963Z,75.57
2019-05-29T03:14:17.804Z,75.68
2019-05-29T03:16:50.647Z,75.62
2019-05-29T03:19:23.891Z,75.32
2019-05-29T03:21:56.770Z,75.49
2019-05-29T03:24:30.836Z,75.72
2019-05-29T03:27:04.152Z,75.56
2019-05-29T03:29:38.491Z,75.82
2019-05-29T03:32:14.057Z,75.91
2019-05-29T03:34:47.610Z,75.56
2019-05-29T03:37:20.992Z,75.76
2019-05-29T03:39:54.053Z,75.42
2019-05-29T03:42:28.295Z,75.55
2019-05-29T03:45:01.379Z,74.28
2019-05-29T03:47:35.061Z,73.87
2019-05-29T03:50:08.443Z,73.15
2019-05-29T03:52:41.221Z,72.29
2019-05-29T03:55:13.996Z,72.08
2019-05-29T03:57:46.875Z,71.70
2019-05-29T04:00:19.840Z,71.32
2019-05-29T04:02:52.739Z,72.45
2019-05-29T04:05:26.845Z,72.19
2019-05-29T04:07:59.796Z,72.13
2019-05-29T04:10:35.520Z,72.22
2019-05-29T04:13:07.658Z,73.05
2019-05-29T04:15:42.147Z,73.14
2019-05-29T04:18:19.242Z,73.31
2019-05-29T04:20:50.674Z,73.50
2019-05-29T04:23:25.484Z,73.35
2019-05-29T04:25:59.455Z,73.79
2019-05-29T04:28:34.743Z,72.60
2019-05-29T04:31:08.059Z,74.48
2019-05-29T04:33:40.871Z,73.00
2019-05-29T04:36:13.705Z,71.03
2019-05-29T04:38:46.480Z,71.47
2019-05-29T04:41:19.265Z,71.50
2019-05-29T04:43:52.089Z,71.49
2019-05-29T04:46:24.896Z,71.77
2019-05-29T04:48:57.921Z,71.06
2019-05-29T04:51:31.232Z,71.49
2019-05-29T04:54:04.207Z,71.38
2019-05-29T04:56:37.063Z,71.61
2019-05-29T04:59:10.009Z,72.60
2019-05-29T05:01:42.812Z,70.85
2019-05-29T05:04:15.662Z,71.17
2019-05-29T05:06:48.514Z,71.27
2019-05-29T05:09:21.349Z,69.83
2019-05-29T05:11:54.918Z,69.78
2019-05-29T05:14:27.746Z,68.91
2019-05-29T05:17:00.636Z,68.43
2019-05-29T05:19:33.940Z,67.83
2019-05-29T05:22:08.417Z,67.47
2019-05-29T05:24:43.950Z,66.95
2019-05-29T05:27:15.829Z,66.68
2019-05-29T05:29:48.698Z,66.39
2019-05-29T05:32:21.524Z,67.75
2019-05-29T05:34:54.642Z,66.55
2019-05-29T05:37:27.411Z,66.92
2019-05-29T05:40:00.296Z,66.46
2019-05-29T05:42:33.061Z,66.74
2019-05-29T05:45:06.194Z,65.73
2019-05-29T05:47:50.435Z,65.47
2019-05-29T05:50:14.377Z,64.59
2019-05-29T05:52:47.151Z,62.89
2019-05-29T05:55:20.182Z,63.08
2019-05-29T05:57:53.031Z,62.02
2019-05-29T06:00:35.837Z,60.42
2019-05-29T06:03:09.342Z,59.51
2019-05-29T06:05:42.349Z,58.79
2019-05-29T06:08:15.293Z,58.70
2019-05-29T06:10:51.106Z,58.69
2019-05-29T06:13:23.690Z,57.99
2019-05-29T06:15:56.704Z,56.97
2019-05-29T06:18:29.528Z,57.57
2019-05-29T06:21:02.722Z,56.10
2019-05-29T06:23:36.897Z,56.45
2019-05-29T06:26:09.978Z,56.52
2019-05-29T06:28:43.479Z,57.37
2019-05-29T06:31:16.493Z,55.48
2019-05-29T06:33:49.250Z,54.81
2019-05-29T06:36:22.194Z,52.81
2019-05-29T06:38:55.134Z,54.57
2019-05-29T06:41:28.279Z,54.08
2019-05-29T06:44:01.217Z,51.32
2019-05-29T06:46:34.398Z,50.23
2019-05-29T06:49:07.190Z,51.70
2019-05-29T06:51:41.253Z,50.78
2019-05-29T06:54:14.304Z,51.61
2019-05-29T06:56:48.013Z,51.80
2019-05-29T06:59:20.913Z,50.25
2019-05-29T07:01:53.770Z,50.39
2019-05-29T07:04:26.722Z,49.37
2019-05-29T07:06:59.607Z,48.03
2019-05-29T07:09:32.418Z,47.31
2019-05-29T07:12:05.287Z,48.55
2019-05-29T07:14:38.210Z,47.17
2019-05-29T07:17:11.064Z,45.62
2019-05-29T07:19:57.466Z,46.08
2019-05-29T07:22:18.569Z,46.00
2019-05-29T07:24:51.334Z,47.85
2019-05-29T07:27:24.157Z,47.97
2019-05-29T07:29:57.054Z,46.89
2019-05-29T07:32:29.954Z,45.65
2019-05-29T07:35:04.101Z,46.60
2019-05-29T07:37:39.542Z,45.63
2019-05-29T07:40:14.138Z,46.25
2019-05-29T07:42:55.076Z,45.00
2019-05-29T07:45:23.152Z,45.68
2019-05-29T07:47:56.477Z,44.89
2019-05-29T07:50:29.351Z,45.27
2019-05-29T07:53:02.247Z,46.02
2019-05-29T07:55:35.063Z,46.75
2019-05-29T07:58:07.964Z,44.42
2019-05-29T08:01:03.765Z,43.49
2019-05-29T08:03:15.504Z,45.08
2019-05-29T08:05:51.536Z,44.30
2019-05-29T08:08:22.829Z,45.09
2019-05-29T08:10:56.788Z,43.92
2019-05-29T08:13:29.597Z,45.22
2019-05-29T08:16:03.418Z,45.60
2019-05-29T08:18:36.583Z,45.93
2019-05-29T08:21:09.460Z,42.54
2019-05-29T08:23:42.351Z,44.72
2019-05-29T08:26:15.100Z,42.20
2019-05-29T08:28:48.947Z,43.44
2019-05-29T08:31:21.835Z,43.62
2019-05-29T08:33:54.598Z,42.29
2019-05-29T08:36:27.474Z,43.96
2019-05-29T08:39:00.247Z,44.81
2019-05-29T08:41:33.202Z,45.53
2019-05-29T08:44:06.060Z,46.60
2019-05-29T08:46:38.958Z,46.30
2019-05-29T08:49:11.837Z,46.35
2019-05-29T08:51:46.023Z,45.36
2019-05-29T08:54:23.809Z,45.07
2019-05-29T08:56:53.355Z,45.25
2019-05-29T08:59:26.099Z,45.05
2019-05-29T09:01:58.891Z,43.41
2019-05-29T09:04:32.064Z,43.06
2019-05-29T09:07:04.983Z,43.65
2019-05-29T09:09:37.848Z,44.08
2019-05-29T09:12:11.393Z,43.12
2019-05-29T09:14:44.174Z,43.90
2019-05-29T09:17:18.400Z,43.70
2019-05-29T09:19:51.345Z,43.60
2019-05-29T09:22:25.269Z,42.25
2019-05-29T09:24:58.073Z,41.97
2019-05-29T09:27:30.881Z,42.59
2019-05-29T09:30:06.220Z,41.52
2019-05-29T09:32:50.414Z,41.57
2019-05-29T09:35:16.072Z,41.09
2019-05-29T09:37:49.111Z,41.96
2019-05-29T09:40:23.073Z,43.24
2019-05-29T09:42:56.217Z,43.45
2019-05-29T09:45:33.392Z,44.82
2019-05-29T09:48:06.537Z,42.56
2019-05-29T09:50:50.024Z,44.95
2019-05-29T09:53:15.680Z,44.07
2019-05-29T09:55:48.669Z,44.58
2019-05-29T09:58:21.432Z,44.65
2019-05-29T10:01:16.200Z,42.27
2019-05-29T10:03:28.890Z,40.99
2019-05-29T10:06:01.661Z,42.44
2019-05-29T10:08:34.449Z,43.82
2019-05-29T10:11:15.569Z,44.32
2019-05-29T10:13:48.335Z,43.91
2019-05-29T10:16:21.217Z,41.09
2019-05-29T10:18:54.259Z,41.24
2019-05-29T10:21:39.191Z,41.25
2019-05-29T10:24:04.157Z,42.50
2019-05-29T10:26:37.399Z,44.60
2019-05-29T10:29:10.388Z,45.22
2019-05-29T10:31:46.828Z,45.33
2019-05-29T10:34:17.985Z,46.57
2019-05-29T10:36:53.570Z,47.57
2019-05-29T10:39:25.421Z,48.84
2019-05-29T10:41:58.268Z,48.57
2019-05-29T10:44:31.083Z,49.15
2019-05-29T10:47:03.914Z,47.34
2019-05-29T10:49:36.792Z,46.60
2019-05-29T10:52:16.162Z,45.86
2019-05-29T10:54:44.147Z,46.94
2019-05-29T10:57:17.165Z,46.05
2019-05-29T10:59:50.853Z,45.25
2019-05-29T11:02:23.752Z,43.92
2019-05-29T11:04:59.338Z,46.14
2019-05-29T11:07:31.654Z,47.74
2019-05-29T11:10:04.701Z,48.89
2019-05-29T11:12:39.504Z,48.28
2019-05-29T11:15:21.485Z,49.61
2019-05-29T11:17:47.147Z,48.72
2019-05-29T11:20:21.973Z,49.62
2019-05-29T11:22:55.670Z,49.72
2019-05-29T11:25:28.922Z,48.05
2019-05-29T11:28:01.730Z,46.70
2019-05-29T11:30:34.667Z,46.09
2019-05-29T11:33:07.496Z,45.24
2019-05-29T11:35:57.240Z,44.74
2019-05-29T11:38:15.085Z,42.72
2019-05-29T11:40:48.229Z,42.31
2019-05-29T11:43:21.492Z,43.81
2019-05-29T11:45:55.189Z,45.21
2019-05-29T11:48:28.177Z,46.65
2019-05-29T11:51:01.030Z,47.94
2019-05-29T11:53:33.826Z,48.87
2019-05-29T11:56:07.062Z,48.50
2019-05-29T11:58:39.965Z,47.93
2019-05-29T12:01:13.187Z,47.82
2019-05-29T12:04:09.015Z,48.04
2019-05-29T12:06:20.530Z,47.28
2019-05-29T12:08:53.686Z,46.54
2019-05-29T12:11:26.730Z,45.35
2019-05-29T12:14:00.489Z,44.29
2019-05-29T12:16:33.910Z,44.50
2019-05-29T12:19:07.825Z,45.53
2019-05-29T12:21:42.788Z,44.75
2019-05-29T12:24:15.272Z,44.75
2019-05-29T12:26:48.144Z,42.92
2019-05-29T12:29:20.953Z,45.70
2019-05-29T12:31:54.907Z,46.33
2019-05-29T12:34:27.903Z,46.06
2019-05-29T12:37:01.897Z,45.85
2019-05-29T12:39:34.953Z,44.73
2019-05-29T12:42:08.055Z,43.37
2019-05-29T12:44:40.868Z,43.31
2019-05-29T12:47:13.968Z,42.63
2019-05-29T12:49:46.842Z,39.96
2019-05-29T12:52:19.825Z,40.71
2019-05-29T12:54:53.950Z,43.51
2019-05-29T12:57:26.790Z,41.67
2019-05-29T13:00:00.317Z,41.11
2019-05-29T13:02:33.204Z,41.93
2019-05-29T13:05:16.049Z,42.66
2019-05-29T13:07:44.446Z,40.02
2019-05-29T13:10:30.241Z,40.88
2019-05-29T13:13:02.406Z,41.65
2019-05-29T13:15:29.447Z,40.94
2019-05-29T13:18:06.247Z,41.07
2019-05-29T13:20:36.880Z,40.77
2019-05-29T13:23:10.933Z,40.41
2019-05-29T13:25:43.870Z,42.54
2019-05-29T13:28:16.819Z,40.81
2019-05-29T13:30:49.600Z,39.93
2019-05-29T13:33:22.688Z,40.14
2019-05-29T13:35:56.246Z,41.75
2019-05-29T13:38:29.336Z,42.81
2019-05-29T13:41:04.620Z,41.21
2019-05-29T13:43:37.538Z,41.04
2019-05-29T13:46:10.450Z,40.73
2019-05-29T13:48:43.605Z,39.56
2019-05-29T13:51:16.504Z,41.90
2019-05-29T13:54:02.681Z,39.70
2019-05-29T13:56:24.440Z,39.90
2019-05-29T13:58:57.841Z,42.07
2019-05-29T14:01:31.018Z,40.78
2019-05-29T14:04:05.179Z,40.44
2019-05-29T14:06:38.567Z,41.27
2019-05-29T14:09:11.575Z,41.22
2019-05-29T14:11:44.557Z,41.38
2019-05-29T14:14:18.070Z,42.34
2019-05-29T14:16:51.130Z,41.33
2019-05-29T14:19:23.956Z,39.87
2019-05-29T14:21:57.119Z,40.52
2019-05-29T14:24:30.557Z,40.41
2019-05-29T14:27:03.652Z,40.53
2019-05-29T14:29:36.441Z,39.15
2019-05-29T14:32:09.412Z,38.87
2019-05-29T14:34:42.265Z,41.35
2019-05-29T14:37:15.117Z,39.17
2019-05-29T14:39:47.975Z,39.43
2019-05-29T14:42:20.777Z,40.06
2019-05-29T14:44:53.530Z,40.38
2019-05-29T14:47:26.499Z,39.14
2019-05-29T14:49:59.373Z,40.76
2019-05-29T14:52:32.306Z,40.35
2019-05-29T14:55:06.770Z,39.87
2019-05-29T14:57:39.649Z,38.72
2019-05-29T15:00:22.836Z,39.49
2019-05-29T15:02:48.933Z,40.35
2019-05-29T15:05:22.057Z,39.92
2019-05-29T15:07:54.917Z,40.08
2019-05-29T15:10:27.976Z,39.57
2019-05-29T15:13:00.876Z,40.53
2019-05-29T15:15:34.163Z,39.21
2019-05-29T15:18:07.128Z,38.69
2019-05-29T15:20:40.044Z,39.68
2019-05-29T15:23:13.528Z,40.19
2019-05-29T15:25:46.392Z,39.96
2019-05-29T15:28:19.294Z,40.09
2019-05-29T15:30:52.134Z,39.47
2019-05-29T15:33:25.324Z,38.88
2019-05-29T15:35:58.227Z,40.19
2019-05-29T15:38:31.060Z,39.43
2019-05-29T15:41:03.833Z,39.54
2019-05-29T15:43:36.887Z,40.03
2019-05-29T15:46:10.491Z,38.83
2019-05-29T15:48:44.280Z,39.03
2019-05-29T15:51:21.732Z,38.64
2019-05-29T15:53:53.529Z,38.01
2019-05-29T15:56:28.160Z,38.94
2019-05-29T15:59:01.435Z,39.50
2019-05-29T16:01:34.277Z,38.51
2019-05-29T16:04:09.510Z,39.32
2019-05-29T16:06:42.714Z,40.07
2019-05-29T16:09:16.339Z,39.27
2019-05-29T16:11:49.572Z,39.19
2019-05-29T16:14:25.364Z,38.86
2019-05-29T16:16:59.715Z,38.74
2019-05-29T16:19:32.807Z,40.49
2019-05-29T16:22:05.847Z,38.84
2019-05-29T16:24:39.390Z,39.88
2019-05-29T16:27:12.276Z,40.54
2019-05-29T16:29:45.157Z,39.84
2019-05-29T16:32:18.041Z,40.83
2019-05-29T16:34:50.891Z,39.88
2019-05-29T16:37:23.704Z,40.59
2019-05-29T16:39:56.745Z,40.13
2019-05-29T16:42:29.693Z,40.76
2019-05-29T16:45:04.142Z,40.64
2019-05-29T16:47:37.108Z,39.79
2019-05-29T16:50:14.984Z,40.23
2019-05-29T16:53:42.729Z,40.37
2019-05-29T16:56:26.058Z,40.47
2019-05-29T16:58:59.053Z,41.60
2019-05-29T17:01:37.880Z,42.33
2019-05-29T17:04:11.140Z,41.87
2019-05-29T17:06:44.159Z,41.79
2019-05-29T17:09:24.431Z,41.99
2019-05-29T17:11:58.035Z,41.93
2019-05-29T17:14:32.081Z,42.27
2019-05-29T17:17:05.057Z,41.71
2019-05-29T17:19:41.688Z,42.24
2019-05-29T17:22:14.899Z,43.01
2019-05-29T17:24:54.001Z,43.91
2019-05-29T17:27:27.411Z,43.70
2019-05-29T17:30:07.077Z,42.56
2019-05-29T17:32:48.457Z,42.81
2019-05-29T17:35:26.198Z,42.84
2019-05-29T17:38:12.650Z,42.97
2019-05-29T17:40:53.627Z,43.97
2019-05-29T17:43:45.246Z,44.11
2019-05-29T17:46:22.026Z,44.56
2019-05-29T17:49:30.343Z,43.88
2019-05-29T17:52:04.593Z,43.59
2019-05-29T17:55:36.727Z,44.97
2019-05-29T17:59:00.397Z,44.71
2019-05-29T18:01:20.216Z,45.20
2019-05-29T18:04:12.078Z,45.89
2019-05-29T18:06:48.659Z,46.45
2019-05-29T18:09:39.963Z,46.95
2019-05-29T18:12:17.120Z,47.47
2019-05-29T18:14:52.422Z,47.04
2019-05-29T18:17:58.437Z,46.94
2019-05-29T18:21:38.597Z,46.44
2019-05-29T18:24:24.201Z,46.53
2019-05-29T18:27:00.200Z,47.56
2019-05-29T18:29:42.024Z,47.92
2019-05-29T18:32:47.539Z,48.09
2019-05-29T18:35:45.036Z,48.37
2019-05-29T18:38:38.284Z,48.94
2019-05-29T18:41:24.406Z,48.72
2019-05-29T18:44:04.295Z,49.87
2019-05-29T18:50:15.764Z,50.72
2019-05-29T18:53:09.655Z,50.96
2019-05-29T18:55:37.936Z,51.70
2019-05-29T18:58:41.322Z,51.79
2019-05-29T19:01:31.734Z,52.49
2019-05-29T19:04:06.608Z,52.84
2019-05-29T19:07:04.122Z,52.64
2019-05-29T19:10:06.215Z,53.21
2019-05-29T19:13:01.682Z,54.04
2019-05-29T19:25:33.062Z,54.87
2019-05-29T19:28:06.552Z,54.94
2019-05-29T19:30:40.147Z,54.82
2019-05-29T19:33:13.435Z,54.66
2019-05-29T19:35:46.847Z,54.23
2019-05-29T19:38:19.898Z,53.96
2019-05-29T19:40:53.080Z,53.79
2019-05-29T19:43:26.440Z,53.39
2019-05-29T19:45:59.676Z,53.64
2019-05-29T19:48:33.458Z,53.14
2019-05-29T19:51:07.148Z,53.07
2019-05-29T19:53:40.523Z,52.92
2019-05-29T19:56:13.732Z,52.90
2019-05-29T19:58:47.177Z,52.58
2019-05-29T20:01:30.790Z,52.61
2019-05-29T20:03:56.030Z,52.87
2019-05-29T20:06:30.997Z,53.50
2019-05-29T20:09:07.266Z,53.05
2019-05-29T20:11:40.433Z,52.62
2019-05-29T20:14:13.576Z,52.91
2019-05-29T20:16:46.611Z,52.64
2019-05-29T20:19:19.749Z,52.82
2019-05-29T20:21:52.821Z,52.61
2019-05-29T20:24:26.768Z,52.61
2019-05-29T20:26:59.834Z,52.04
2019-05-29T20:29:38.560Z,51.55
2019-05-29T20:32:11.833Z,51.10
2019-05-29T20:34:44.806Z,50.53
2019-05-29T20:37:17.899Z,50.28
2019-05-29T20:39:50.955Z,49.95
2019-05-29T20:42:24.115Z,50.13
2019-05-29T20:44:57.016Z,50.16
2019-05-29T20:47:30.068Z,49.63
2019-05-29T20:50:03.693Z,49.09
2019-05-29T20:52:37.407Z,48.80
2019-05-29T20:55:10.734Z,48.51
2019-05-29T20:57:43.772Z,48.90
2019-05-29T21:00:18.844Z,49.13
2019-05-29T21:02:52.563Z,48.30
2019-05-29T21:05:25.500Z,48.83
2019-05-29T21:07:58.464Z,47.96
2019-05-29T21:10:32.995Z,47.95
2019-05-29T21:13:06.290Z,48.21
2019-05-29T21:15:39.786Z,47.98
2019-05-29T21:18:13.335Z,47.72
2019-05-29T21:20:46.435Z,48.03
2019-05-29T21:23:19.569Z,47.96
2019-05-29T21:25:58.252Z,47.22
2019-05-29T21:28:40.755Z,47.62
2019-05-29T21:31:06.914Z,47.40
2019-05-29T21:33:43.906Z,47.39
2019-05-29T21:36:14.560Z,47.04
2019-05-29T21:38:47.456Z,47.18
2019-05-29T21:41:20.331Z,47.10
2019-05-29T21:43:54.342Z,47.48
2019-05-29T21:46:27.461Z,47.72
2019-05-29T21:49:00.402Z,47.65
2019-05-29T21:51:33.415Z,47.86
2019-05-29T21:54:06.578Z,47.95
2019-05-29T21:56:39.523Z,48.32
2019-05-29T21:59:12.643Z,48.18
2019-05-29T22:01:46.295Z,48.11
2019-05-29T22:04:19.337Z,48.84
2019-05-29T22:06:52.437Z,48.76
2019-05-29T22:09:25.456Z,48.67
2019-05-29T22:11:58.600Z,48.52
2019-05-29T22:14:31.980Z,48.21
2019-05-29T22:17:06.051Z,48.35
2019-05-29T22:19:39.046Z,48.05
2019-05-29T22:22:12.081Z,48.33
2019-05-29T22:24:45.149Z,48.14
2019-05-29T22:27:18.017Z,48.04
2019-05-29T22:29:51.968Z,48.25
2019-05-29T22:32:25.499Z,48.26
2019-05-29T22:34:59.503Z,48.23
2019-05-29T22:37:32.881Z,48.55
2019-05-29T22:40:06.103Z,48.76
2019-05-29T22:42:38.985Z,48.64
2019-05-29T22:45:12.142Z,48.93
2019-05-29T22:47:45.340Z,49.35
2019-05-29T22:50:18.468Z,49.61
2019-05-29T22:52:51.752Z,50.03
2019-05-29T22:55:24.871Z,50.71
2019-05-29T22:57:58.018Z,50.99
2019-05-29T23:00:34.259Z,51.30
2019-05-29T23:03:07.284Z,51.20
2019-05-29T23:05:40.558Z,52.06
2019-05-29T23:08:13.647Z,52.60
2019-05-29T23:10:46.614Z,53.65
2019-05-29T23:13:19.756Z,54.35
2019-05-29T23:15:54.471Z,53.42
2019-05-29T23:18:27.655Z,54.34
2019-05-29T23:21:00.651Z,54.65
2019-05-29T23:23:34.061Z,54.66
2019-05-29T23:26:07.129Z,54.61
2019-05-29T23:28:40.154Z,55.04
2019-05-29T23:31:13.139Z,55.64
2019-05-29T23:33:46.216Z,56.24
2019-05-29T23:36:19.086Z,55.70
2019-05-29T23:38:53.124Z,56.32
2019-05-29T23:41:26.318Z,56.13
2019-05-29T23:43:59.532Z,56.50
2019-05-29T23:46:32.525Z,56.77
2019-05-29T23:49:05.417Z,57.23
2019-05-29T23:51:38.287Z,56.97
2019-05-29T23:54:12.134Z,57.21
2019-05-29T23:56:44.905Z,57.05
2019-05-29T23:59:17.816Z,57.31
